Time;durP1;ratioP1;P1;durP2;ratioP2;P2;SDS_P1;SDS_P2;PMS_P1;PMS_P2;Temp;Humidity;BMP_temperature;BMP_pressure;BME280_temperature;BME280_humidity;BME280_pressure;Samples;Min_cycle;Max_cycle;Signal;HPM_P1;HPM_P2
2022/07/24 00:01:52;;;;;;;6.72;4.75;;;15.90;99.90;;;;;;5097182;27;20448;-68
2022/07/24 00:04:18;;;;;;;9.68;5.63;;;15.90;99.90;;;;;;5082562;27;20047;-68
2022/07/24 00:06:44;;;;;;;5.68;4.15;;;15.80;99.90;;;;;;5103986;27;20051;-67
2022/07/24 00:09:10;;;;;;;6.85;4.13;;;15.80;99.90;;;;;;5087288;28;20051;-69
2022/07/24 00:11:35;;;;;;;9.30;4.82;;;15.80;99.90;;;;;;5107021;27;20058;-68
2022/07/24 00:14:01;;;;;;;11.10;5.95;;;15.80;99.90;;;;;;5105531;27;20055;-68
2022/07/24 00:16:27;;;;;;;7.55;4.55;;;15.80;99.90;;;;;;5102376;27;20043;-69
2022/07/24 00:18:53;;;;;;;8.52;4.45;;;15.70;99.90;;;;;;5104905;27;20640;-68
2022/07/24 00:21:18;;;;;;;10.13;6.43;;;15.70;99.90;;;;;;5104714;27;20048;-68
2022/07/24 00:23:44;;;;;;;9.82;5.30;;;15.70;99.90;;;;;;5102455;27;20051;-67
2022/07/24 00:26:11;;;;;;;11.23;5.55;;;15.70;99.90;;;;;;5084232;28;20043;-68
2022/07/24 00:28:37;;;;;;;6.57;5.03;;;15.70;99.90;;;;;;5084192;28;20062;-68
2022/07/24 00:31:09;;;;;;;6.53;5.13;;;15.70;99.90;;;;;;5091893;28;20051;-68
2022/07/24 00:33:34;;;;;;;8.48;5.55;;;15.60;99.90;;;;;;5107965;28;20047;-69
2022/07/24 00:36:00;;;;;;;15.35;6.70;;;15.60;99.90;;;;;;5108112;28;20511;-69
2022/07/24 00:38:26;;;;;;;7.15;5.85;;;15.60;99.90;;;;;;5105941;28;20489;-68
2022/07/24 00:40:52;;;;;;;8.02;5.55;;;15.60;99.90;;;;;;5074156;28;20477;-69
2022/07/24 00:43:18;;;;;;;7.15;5.43;;;15.60;99.90;;;;;;5104575;27;20047;-68
2022/07/24 00:45:44;;;;;;;6.53;5.65;;;15.50;99.90;;;;;;5087683;28;20056;-68
2022/07/24 00:48:10;;;;;;;12.05;6.72;;;15.50;99.90;;;;;;5088398;27;20099;-68
2022/07/24 00:50:44;;;;;;;7.95;5.15;;;15.50;99.90;;;;;;5103276;27;20051;-70
2022/07/24 00:53:10;;;;;;;6.07;5.32;;;15.50;99.90;;;;;;5086031;28;20134;-69
2022/07/24 00:55:37;;;;;;;7.90;5.28;;;15.50;99.90;;;;;;5065757;27;20127;-70
2022/07/24 00:58:03;;;;;;;7.90;4.82;;;15.50;99.90;;;;;;5101120;27;20043;-68
2022/07/24 01:00:29;;;;;;;8.15;5.00;;;15.50;99.90;;;;;;5083623;28;20051;-69
2022/07/24 01:02:55;;;;;;;7.40;5.15;;;15.50;99.90;;;;;;5105844;27;20477;-68
2022/07/24 01:05:20;;;;;;;9.52;5.20;;;15.50;99.90;;;;;;5110404;27;20115;-67
2022/07/24 01:07:46;;;;;;;5.68;4.90;;;15.50;99.90;;;;;;5104195;27;20142;-68
2022/07/24 01:10:15;;;;;;;7.25;4.55;;;15.50;99.90;;;;;;5107325;28;20036;-68
2022/07/24 01:12:41;;;;;;;6.55;5.30;;;15.50;99.90;;;;;;5076234;28;20090;-68
2022/07/24 01:15:09;;;;;;;5.95;5.18;;;15.50;99.90;;;;;;5102656;27;20071;-68
2022/07/24 01:17:42;;;;;;;12.98;5.53;;;15.50;99.90;;;;;;5107097;27;20097;-68
2022/07/24 01:20:09;;;;;;;8.80;4.63;;;15.50;99.90;;;;;;5103434;28;20032;-67
2022/07/24 01:22:35;;;;;;;7.55;4.78;;;15.50;99.90;;;;;;5108131;28;20036;-67
2022/07/24 01:25:01;;;;;;;8.35;5.50;;;15.50;99.90;;;;;;5099923;28;20062;-69
2022/07/24 01:27:26;;;;;;;8.50;5.18;;;15.50;99.90;;;;;;5094023;28;20089;-67
2022/07/24 01:29:52;;;;;;;9.50;5.25;;;15.40;99.90;;;;;;5088726;28;20532;-68
2022/07/24 01:32:18;;;;;;;8.60;5.65;;;15.40;99.90;;;;;;5109539;28;20478;-69
2022/07/24 01:34:44;;;;;;;7.38;5.55;;;15.40;99.90;;;;;;5091669;28;20433;-67
2022/07/24 01:37:10;;;;;;;6.13;5.00;;;15.40;99.90;;;;;;5088596;28;20051;-69
2022/07/24 01:39:39;;;;;;;11.45;5.50;;;15.40;99.90;;;;;;5073126;28;20052;-67
2022/07/24 01:42:04;;;;;;;6.35;5.65;;;15.40;99.90;;;;;;5089437;28;20477;-69
2022/07/24 01:44:30;;;;;;;9.18;5.85;;;15.40;99.90;;;;;;5093412;28;20107;-68
2022/07/24 01:46:56;;;;;;;10.18;5.40;;;15.40;99.90;;;;;;5111375;28;20397;-69
2022/07/24 01:49:21;;;;;;;8.10;6.03;;;15.40;99.90;;;;;;5080564;28;20096;-68
2022/07/24 01:51:47;;;;;;;8.57;5.50;;;15.30;99.90;;;;;;5082019;28;20097;-68
2022/07/24 01:54:13;;;;;;;6.90;5.70;;;15.40;99.90;;;;;;5109381;28;20036;-68
2022/07/24 01:56:39;;;;;;;6.43;4.78;;;15.30;99.90;;;;;;5098013;28;20098;-69
2022/07/24 01:59:04;;;;;;;9.50;5.88;;;15.30;99.90;;;;;;5110435;28;20039;-68
2022/07/24 02:01:30;;;;;;;6.82;5.82;;;15.30;99.90;;;;;;5092246;28;20047;-68
2022/07/24 02:03:56;;;;;;;7.63;5.88;;;15.30;99.90;;;;;;5110360;28;20044;-68
2022/07/24 02:06:22;;;;;;;7.45;5.32;;;15.30;99.90;;;;;;5101349;28;20032;-69
2022/07/24 02:08:48;;;;;;;8.50;5.90;;;15.30;99.90;;;;;;5107405;28;20140;-69
2022/07/24 02:11:13;;;;;;;8.32;6.03;;;15.20;99.90;;;;;;5107609;28;20056;-68
2022/07/24 02:13:39;;;;;;;8.50;6.28;;;15.30;99.90;;;;;;5074776;28;20047;-67
2022/07/24 02:16:05;;;;;;;8.55;5.85;;;15.30;99.90;;;;;;5092799;28;20101;-69
2022/07/24 02:18:31;;;;;;;8.60;5.40;;;15.30;99.90;;;;;;5084449;28;20119;-67
2022/07/24 02:20:56;;;;;;;6.70;5.50;;;15.30;99.90;;;;;;5096119;28;20135;-71
2022/07/24 02:23:22;;;;;;;7.20;5.78;;;15.20;99.90;;;;;;5096000;28;20402;-68
2022/07/24 02:25:50;;;;;;;5.88;5.00;;;15.20;99.90;;;;;;5098241;28;20047;-68
2022/07/24 02:28:19;;;;;;;7.78;5.47;;;15.20;99.90;;;;;;5112248;28;20051;-68
2022/07/24 02:30:45;;;;;;;8.07;5.57;;;15.20;99.90;;;;;;5096703;28;20122;-68
2022/07/24 02:33:11;;;;;;;5.45;4.70;;;15.20;99.90;;;;;;5082113;28;20473;-68
2022/07/24 02:35:38;;;;;;;8.68;5.10;;;15.20;99.90;;;;;;5102758;28;20036;-68
2022/07/24 02:38:04;;;;;;;5.25;4.45;;;15.20;99.90;;;;;;5103786;28;20044;-68
2022/07/24 02:40:30;;;;;;;5.82;4.93;;;15.20;99.90;;;;;;5101263;28;20046;-69
2022/07/24 02:42:56;;;;;;;9.65;4.43;;;15.20;99.90;;;;;;5098385;28;20046;-68
2022/07/24 02:45:22;;;;;;;7.72;4.47;;;15.20;99.90;;;;;;5076340;28;20036;-68
2022/07/24 02:47:54;;;;;;;5.95;4.43;;;15.30;99.90;;;;;;5096808;28;20040;-68
2022/07/24 02:50:24;;;;;;;9.95;5.32;;;15.20;99.90;;;;;;5110468;28;20043;-68
2022/07/24 02:52:50;;;;;;;7.65;4.25;;;15.30;99.90;;;;;;5087605;28;20611;-68
2022/07/24 02:55:16;;;;;;;7.97;4.63;;;15.30;99.90;;;;;;5087703;28;20044;-68
2022/07/24 02:57:43;;;;;;;7.30;4.80;;;15.30;99.90;;;;;;5112472;28;20436;-68
2022/07/24 03:00:11;;;;;;;6.47;4.40;;;15.30;99.90;;;;;;5101789;28;20048;-68
2022/07/24 03:02:37;;;;;;;6.15;4.13;;;15.30;99.90;;;;;;5111273;28;20122;-67
2022/07/24 03:05:05;;;;;;;6.40;4.70;;;15.30;99.90;;;;;;5102517;28;20505;-69
2022/07/24 03:07:37;;;;;;;6.75;5.03;;;15.40;99.90;;;;;;5109875;28;20058;-69
2022/07/24 03:10:08;;;;;;;8.10;4.85;;;15.40;99.90;;;;;;5111577;27;20075;-68
2022/07/24 03:12:34;;;;;;;5.68;4.38;;;15.40;99.90;;;;;;5110948;28;20110;-67
2022/07/24 03:15:03;;;;;;;13.25;5.70;;;15.40;99.90;;;;;;5111241;27;20093;-68
2022/07/24 03:17:29;;;;;;;7.70;4.30;;;15.40;99.90;;;;;;5111406;27;20110;-68
2022/07/24 03:19:55;;;;;;;10.77;4.80;;;15.40;99.90;;;;;;5098564;28;20127;-68
2022/07/24 03:22:21;;;;;;;7.93;4.95;;;15.40;99.90;;;;;;5115118;28;20131;-68
2022/07/24 03:24:47;;;;;;;7.40;5.18;;;15.40;99.90;;;;;;5100267;28;20527;-68
2022/07/24 03:27:12;;;;;;;7.13;4.60;;;15.40;99.90;;;;;;5092198;28;20040;-68
2022/07/24 03:29:38;;;;;;;7.30;4.57;;;15.50;99.90;;;;;;5095881;28;20063;-69
2022/07/24 03:32:04;;;;;;;8.90;4.60;;;15.50;99.90;;;;;;5089638;28;20044;-70
2022/07/24 03:34:30;;;;;;;9.90;4.65;;;15.50;99.90;;;;;;5109810;28;20096;-68
2022/07/24 03:36:56;;;;;;;5.40;4.50;;;15.50;99.90;;;;;;5086933;28;20052;-68
2022/07/24 03:39:22;;;;;;;6.70;4.70;;;15.50;99.90;;;;;;5099933;27;20051;-68
2022/07/24 03:41:47;;;;;;;6.30;4.60;;;15.50;99.90;;;;;;5087213;28;20046;-68
2022/07/24 03:44:13;;;;;;;8.57;4.57;;;15.60;99.90;;;;;;5101698;27;20367;-68
2022/07/24 03:46:39;;;;;;;7.07;5.18;;;15.50;99.90;;;;;;5111661;28;20063;-67
2022/07/24 03:49:05;;;;;;;8.93;5.07;;;15.50;99.90;;;;;;5092257;28;20046;-69
2022/07/24 03:51:30;;;;;;;6.78;4.85;;;15.60;99.90;;;;;;5101894;27;20509;-68
2022/07/24 03:53:56;;;;;;;6.47;4.93;;;15.60;99.90;;;;;;5092275;28;20051;-69
2022/07/24 03:56:22;;;;;;;7.25;5.40;;;15.60;99.90;;;;;;5113570;28;20035;-69
2022/07/24 03:58:47;;;;;;;10.57;6.22;;;15.60;99.90;;;;;;5088288;28;20040;-68
2022/07/24 04:01:13;;;;;;;8.85;5.28;;;15.60;99.90;;;;;;5110904;28;20504;-68
2022/07/24 04:03:42;;;;;;;7.15;5.38;;;15.70;99.90;;;;;;5088867;28;20032;-68
2022/07/24 04:06:07;;;;;;;8.00;5.53;;;15.70;99.90;;;;;;5108885;28;20039;-68
2022/07/24 04:08:33;;;;;;;7.75;5.43;;;15.70;99.90;;;;;;5104671;28;20040;-69
2022/07/24 04:10:59;;;;;;;8.38;5.30;;;15.70;99.90;;;;;;5108542;28;20034;-69
2022/07/24 04:13:26;;;;;;;5.95;5.15;;;15.70;99.90;;;;;;5091529;28;20039;-68
2022/07/24 04:15:53;;;;;;;7.93;5.25;;;15.80;99.90;;;;;;5112494;28;20405;-67
2022/07/24 04:18:19;;;;;;;7.65;4.97;;;15.80;99.90;;;;;;5095190;28;20044;-69
2022/07/24 04:20:44;;;;;;;7.63;5.20;;;15.80;99.90;;;;;;5111627;28;20113;-69
2022/07/24 04:23:10;;;;;;;8.77;5.30;;;15.80;99.90;;;;;;5100338;28;20049;-68
2022/07/24 04:25:39;;;;;;;5.97;5.00;;;15.80;99.90;;;;;;5101148;28;20126;-69
2022/07/24 04:28:05;;;;;;;7.35;5.38;;;15.80;99.90;;;;;;5105253;28;20044;-68
2022/07/24 04:30:31;;;;;;;8.57;4.78;;;15.90;99.90;;;;;;5110660;28;20050;-68
2022/07/24 04:32:57;;;;;;;8.77;5.10;;;15.90;99.90;;;;;;5090240;28;20050;-70
2022/07/24 04:35:23;;;;;;;7.07;5.88;;;15.90;99.90;;;;;;5080462;28;20048;-69
2022/07/24 04:37:49;;;;;;;8.07;5.78;;;15.90;99.90;;;;;;5098877;28;20046;-68
2022/07/24 04:40:15;;;;;;;7.28;5.20;;;16.00;99.90;;;;;;5088507;28;20051;-68
2022/07/24 04:42:41;;;;;;;7.47;5.22;;;16.00;99.90;;;;;;5100384;28;20410;-68
2022/07/24 04:45:10;;;;;;;8.27;5.50;;;16.00;99.90;;;;;;5098411;28;20551;-68
2022/07/24 04:47:39;;;;;;;7.80;5.72;;;16.00;99.90;;;;;;5095227;27;20138;-67
2022/07/24 04:50:06;;;;;;;7.95;5.28;;;16.00;99.90;;;;;;5071648;28;20040;-68
2022/07/24 04:52:32;;;;;;;5.93;4.82;;;16.00;99.90;;;;;;5086552;28;20035;-69
2022/07/24 04:54:58;;;;;;;9.30;5.28;;;16.10;99.90;;;;;;5107029;27;20084;-68
2022/07/24 04:57:23;;;;;;;8.88;4.78;;;16.10;99.90;;;;;;5112575;27;20051;-67
2022/07/24 04:59:49;;;;;;;6.95;5.05;;;16.10;99.90;;;;;;5102487;28;20118;-68
2022/07/24 05:02:15;;;;;;;7.75;6.30;;;16.10;99.90;;;;;;5107798;28;20505;-68
2022/07/24 05:04:41;;;;;;;8.20;5.68;;;16.10;99.90;;;;;;5105345;28;20176;-68
2022/07/24 05:07:07;;;;;;;7.47;5.53;;;16.20;99.90;;;;;;5110176;28;20500;-68
2022/07/24 05:09:32;;;;;;;7.35;5.15;;;16.20;99.90;;;;;;5092420;28;20042;-68
2022/07/24 05:12:01;;;;;;;7.20;5.20;;;16.30;99.90;;;;;;5110735;28;20047;-68
2022/07/24 05:14:27;;;;;;;6.88;5.07;;;16.50;99.90;;;;;;5099068;28;20036;-68
2022/07/24 05:16:52;;;;;;;6.32;5.15;;;16.60;99.90;;;;;;5100411;28;20850;-68
2022/07/24 05:19:18;;;;;;;8.35;5.65;;;16.70;99.90;;;;;;5088843;28;20034;-68
2022/07/24 05:21:44;;;;;;;8.43;5.47;;;16.80;99.90;;;;;;5093689;28;20370;-68
2022/07/24 05:24:09;;;;;;;8.80;4.97;;;16.90;99.90;;;;;;5109789;28;20403;-68
2022/07/24 05:26:35;;;;;;;9.90;5.53;;;16.90;99.90;;;;;;5111445;28;20116;-68
2022/07/24 05:29:06;;;;;;;11.60;5.47;;;16.90;99.90;;;;;;5092215;28;20047;-68
2022/07/24 05:31:33;;;;;;;7.93;5.43;;;17.00;99.90;;;;;;5104812;28;20032;-69
2022/07/24 05:34:02;;;;;;;12.77;6.00;;;17.10;99.90;;;;;;5096583;28;20052;-68
2022/07/24 05:36:28;;;;;;;6.97;5.28;;;17.10;99.90;;;;;;5106441;28;20047;-67
2022/07/24 05:38:54;;;;;;;7.65;5.90;;;17.10;99.90;;;;;;5092175;28;20043;-68
2022/07/24 05:41:20;;;;;;;8.50;5.47;;;17.10;99.90;;;;;;5100956;28;20106;-68
2022/07/24 05:43:45;;;;;;;7.88;5.95;;;17.20;99.90;;;;;;5099835;28;20032;-68
2022/07/24 05:46:11;;;;;;;7.45;5.53;;;17.20;99.90;;;;;;5104487;28;20051;-69
2022/07/24 05:48:37;;;;;;;8.07;6.03;;;17.20;99.90;;;;;;5106867;28;20088;-68
2022/07/24 05:51:02;;;;;;;6.75;5.55;;;17.30;99.90;;;;;;5100694;28;20040;-69
2022/07/24 05:53:28;;;;;;;9.00;6.10;;;17.30;99.90;;;;;;5099162;28;20036;-68
2022/07/24 05:55:54;;;;;;;7.90;5.40;;;17.30;99.90;;;;;;5109841;28;20035;-68
2022/07/24 05:58:20;;;;;;;8.70;6.10;;;17.40;99.90;;;;;;5111128;28;20040;-68
2022/07/24 06:00:46;;;;;;;8.98;6.22;;;17.40;99.90;;;;;;5102084;28;20039;-68
2022/07/24 06:03:12;;;;;;;7.95;6.40;;;17.40;99.90;;;;;;5096420;28;20044;-68
2022/07/24 06:05:41;;;;;;;9.27;6.32;;;17.50;99.90;;;;;;5087867;28;20039;-67
2022/07/24 06:08:08;;;;;;;9.90;5.88;;;17.50;99.90;;;;;;5106132;28;20074;-68
2022/07/24 06:10:34;;;;;;;10.15;6.18;;;17.60;99.90;;;;;;5103955;28;20054;-68
2022/07/24 06:13:00;;;;;;;7.93;6.53;;;17.80;99.90;;;;;;5103229;28;20040;-68
2022/07/24 06:15:26;;;;;;;13.82;6.60;;;17.90;99.90;;;;;;5101945;28;20043;-69
2022/07/24 06:17:54;;;;;;;14.57;6.75;;;18.00;99.90;;;;;;5104402;28;20040;-68
2022/07/24 06:20:19;;;;;;;9.38;5.95;;;18.10;99.90;;;;;;5101411;28;20105;-68
2022/07/24 06:22:45;;;;;;;8.30;6.75;;;18.20;99.90;;;;;;5109447;28;20128;-69
2022/07/24 06:25:11;;;;;;;9.00;7.35;;;18.40;99.90;;;;;;5109729;28;20496;-68
2022/07/24 06:27:45;;;;;;;13.70;7.40;;;18.50;99.90;;;;;;5110806;28;20073;-67
2022/07/24 06:30:25;;;;;;;14.23;8.02;;;18.60;99.90;;;;;;5110775;28;20050;-68
2022/07/24 06:32:53;;;;;;;12.18;8.90;;;18.80;99.90;;;;;;5109114;28;20048;-68
2022/07/24 06:35:20;;;;;;;10.55;8.05;;;19.20;99.90;;;;;;5093287;28;20039;-68
2022/07/24 06:37:46;;;;;;;15.07;8.98;;;19.20;99.90;;;;;;5082988;28;20039;-69
2022/07/24 06:40:12;;;;;;;11.57;8.48;;;19.30;99.90;;;;;;5106298;28;20044;-68
2022/07/24 06:42:38;;;;;;;14.15;9.15;;;19.40;99.90;;;;;;5112526;28;20096;-68
2022/07/24 06:45:05;;;;;;;12.70;9.00;;;19.60;99.90;;;;;;5110051;28;20040;-68
2022/07/24 06:47:30;;;;;;;16.50;9.57;;;19.70;99.90;;;;;;5077148;28;20044;-68
2022/07/24 06:49:56;;;;;;;12.07;9.07;;;19.90;99.90;;;;;;5092107;28;20408;-68
2022/07/24 06:52:22;;;;;;;12.20;9.45;;;20.00;99.90;;;;;;5107983;28;20393;-67
2022/07/24 06:54:48;;;;;;;12.52;8.63;;;20.10;99.90;;;;;;5108308;28;20051;-68
2022/07/24 06:57:14;;;;;;;11.95;9.18;;;20.30;99.90;;;;;;5110957;28;20036;-68
2022/07/24 06:59:40;;;;;;;14.85;9.88;;;20.40;99.90;;;;;;5076964;28;20044;-68
2022/07/24 07:02:06;;;;;;;14.18;10.07;;;20.40;99.90;;;;;;5097849;28;20040;-69
2022/07/24 07:04:32;;;;;;;12.30;9.30;;;20.60;99.90;;;;;;5083074;28;20048;-70
2022/07/24 07:06:58;;;;;;;12.32;9.02;;;20.70;99.90;;;;;;5103422;28;20040;-69
2022/07/24 07:09:24;;;;;;;12.90;9.55;;;20.80;99.90;;;;;;5094867;28;20047;-67
2022/07/24 07:11:50;;;;;;;18.17;9.05;;;20.80;99.90;;;;;;5102854;27;20490;-67
2022/07/24 07:14:15;;;;;;;14.98;9.20;;;20.90;99.90;;;;;;5089862;28;20044;-68
2022/07/24 07:16:41;;;;;;;15.30;9.35;;;21.00;99.90;;;;;;5115045;27;20432;-67
2022/07/24 07:19:07;;;;;;;12.93;9.50;;;21.10;99.90;;;;;;5104688;28;20040;-67
2022/07/24 07:21:32;;;;;;;13.93;9.00;;;21.10;99.90;;;;;;5106549;27;20397;-66
2022/07/24 07:23:58;;;;;;;14.25;9.27;;;21.20;99.90;;;;;;5091059;28;20039;-68
2022/07/24 07:26:24;;;;;;;14.45;9.38;;;21.30;99.90;;;;;;5108340;28;20036;-67
2022/07/24 07:28:50;;;;;;;14.38;8.73;;;21.40;99.90;;;;;;5113367;28;20051;-66
2022/07/24 07:31:16;;;;;;;13.45;9.32;;;21.50;99.90;;;;;;5093029;28;20051;-68
2022/07/24 07:33:41;;;;;;;10.27;7.97;;;21.60;99.90;;;;;;5110875;27;20406;-67
2022/07/24 07:36:08;;;;;;;11.02;7.78;;;21.80;99.90;;;;;;5085133;28;20707;-67
2022/07/24 07:38:37;;;;;;;13.57;9.55;;;22.10;99.90;;;;;;5091778;28;20385;-68
2022/07/24 07:41:03;;;;;;;11.27;7.85;;;22.30;99.90;;;;;;5114936;28;20424;-68
2022/07/24 07:43:29;;;;;;;11.13;7.13;;;22.50;99.90;;;;;;5112611;27;20044;-69
2022/07/24 07:45:58;;;;;;;11.30;6.53;;;22.80;99.90;;;;;;5110109;28;20059;-69
2022/07/24 07:48:24;;;;;;;9.68;6.47;;;23.10;99.90;;;;;;5106838;27;20101;-69
2022/07/24 07:50:50;;;;;;;12.68;6.10;;;23.30;99.90;;;;;;5107983;27;20829;-67
2022/07/24 07:53:18;;;;;;;10.38;5.45;;;23.40;99.90;;;;;;5094347;28;20467;-69
2022/07/24 07:55:44;;;;;;;7.32;5.18;;;23.40;99.90;;;;;;5113240;28;20047;-67
2022/07/24 07:58:10;;;;;;;8.88;4.72;;;23.30;99.90;;;;;;5114090;28;20036;-65
2022/07/24 08:00:36;;;;;;;10.18;4.68;;;23.20;99.90;;;;;;5109561;27;20071;-67
2022/07/24 08:03:04;;;;;;;11.80;4.10;;;23.20;99.90;;;;;;5106912;28;20122;-67
2022/07/24 08:05:30;;;;;;;4.15;3.15;;;23.10;99.90;;;;;;5110827;27;20043;-67
2022/07/24 08:07:56;;;;;;;5.13;3.70;;;23.10;99.90;;;;;;5107014;27;20042;-68
2022/07/24 08:10:22;;;;;;;4.70;3.28;;;23.10;99.90;;;;;;5083886;28;20044;-68
2022/07/24 08:12:48;;;;;;;10.95;4.10;;;23.10;99.90;;;;;;5094692;28;20043;-67
2022/07/24 08:15:14;;;;;;;6.53;3.85;;;23.20;99.90;;;;;;5113717;28;20040;-68
2022/07/24 08:17:43;;;;;;;6.03;3.70;;;23.30;99.90;;;;;;5104375;28;20428;-67
2022/07/24 08:20:09;;;;;;;6.35;3.90;;;23.40;99.90;;;;;;5110402;28;20047;-67
2022/07/24 08:22:35;;;;;;;7.80;3.83;;;23.50;99.90;;;;;;5074023;28;20039;-67
2022/07/24 08:25:01;;;;;;;6.82;3.63;;;23.60;99.90;;;;;;5110359;27;20100;-67
2022/07/24 08:27:27;;;;;;;6.35;3.47;;;23.60;99.90;;;;;;5114066;28;20074;-67
2022/07/24 08:29:54;;;;;;;11.90;4.20;;;23.80;99.90;;;;;;5092869;28;20055;-68
2022/07/24 08:32:20;;;;;;;7.78;3.50;;;24.00;99.90;;;;;;5108137;27;20146;-68
2022/07/24 08:34:46;;;;;;;6.22;3.60;;;24.20;99.90;;;;;;5110526;27;20039;-68
2022/07/24 08:37:11;;;;;;;5.22;3.80;;;24.50;99.90;;;;;;5105578;27;20039;-67
2022/07/24 08:39:37;;;;;;;6.20;3.30;;;24.60;99.30;;;;;;5088309;28;20408;-68
2022/07/24 08:42:08;;;;;;;4.72;3.30;;;24.70;99.30;;;;;;5072270;28;20040;-68
2022/07/24 08:44:34;;;;;;;7.57;3.40;;;24.70;99.10;;;;;;5092139;28;20051;-66
2022/07/24 08:47:01;;;;;;;6.32;3.80;;;24.60;98.40;;;;;;5094740;28;20493;-67
2022/07/24 08:49:30;;;;;;;5.97;3.23;;;24.60;98.50;;;;;;5113689;27;20426;-68
2022/07/24 08:52:00;;;;;;;6.28;3.25;;;24.50;98.40;;;;;;5094242;28;20485;-68
2022/07/24 08:54:25;;;;;;;5.88;3.60;;;24.50;98.70;;;;;;5089321;28;20404;-68
2022/07/24 08:56:51;;;;;;;14.23;3.97;;;24.60;99.00;;;;;;5113137;28;20047;-69
2022/07/24 08:59:22;;;;;;;6.28;3.45;;;24.60;97.90;;;;;;5102317;28;20031;-67
2022/07/24 09:01:48;;;;;;;8.88;3.85;;;24.60;97.70;;;;;;5112639;28;20035;-68
2022/07/24 09:04:33;;;;;;;4.63;3.28;;;24.50;97.40;;;;;;5090458;28;20119;-68
2022/07/24 09:07:00;;;;;;;5.25;3.10;;;24.40;97.30;;;;;;5105621;27;20071;-66
2022/07/24 09:09:26;;;;;;;5.07;3.50;;;24.50;98.00;;;;;;5109447;28;20503;-67
2022/07/24 09:12:14;;;;;;;6.85;3.38;;;24.60;98.30;;;;;;5108602;27;20185;-67
2022/07/24 09:14:45;;;;;;;4.25;3.30;;;24.80;98.20;;;;;;5090629;28;20518;-67
2022/07/24 09:17:17;;;;;;;7.57;3.33;;;25.00;97.60;;;;;;5111682;27;20051;-68
2022/07/24 09:19:50;;;;;;;6.03;3.47;;;25.00;97.10;;;;;;5088881;28;20048;-68
2022/07/24 09:22:34;;;;;;;6.78;3.13;;;24.90;96.60;;;;;;5083999;28;20653;-67
2022/07/24 09:25:05;;;;;;;5.70;3.88;;;25.00;96.60;;;;;;5109518;28;20497;-66
2022/07/24 09:27:32;;;;;;;7.05;4.07;;;25.10;96.70;;;;;;5108774;28;20081;-67
2022/07/24 09:29:59;;;;;;;7.65;3.10;;;25.20;96.30;;;;;;5091007;28;20048;-66
2022/07/24 09:32:26;;;;;;;8.50;3.33;;;25.40;97.00;;;;;;5102021;28;20074;-68
2022/07/24 09:34:53;;;;;;;5.85;3.75;;;25.70;97.60;;;;;;5106357;27;20068;-67
2022/07/24 09:37:22;;;;;;;6.38;3.30;;;26.00;96.50;;;;;;5088608;27;20062;-66
2022/07/24 09:39:48;;;;;;;8.70;3.63;;;26.20;96.30;;;;;;5110536;28;20059;-68
2022/07/24 09:42:14;;;;;;;7.57;3.50;;;26.40;96.10;;;;;;5108116;28;20105;-68
2022/07/24 09:44:40;;;;;;;7.13;3.50;;;26.50;95.40;;;;;;5095096;28;20044;-66
2022/07/24 09:47:08;;;;;;;8.32;3.80;;;26.60;95.00;;;;;;5103308;28;20085;-66
2022/07/24 09:49:37;;;;;;;3.85;2.92;;;26.60;95.10;;;;;;5092588;28;20048;-67
2022/07/24 09:52:05;;;;;;;6.20;2.63;;;26.70;95.00;;;;;;5079220;28;20128;-67
2022/07/24 09:54:36;;;;;;;5.50;2.95;;;26.80;94.90;;;;;;5101391;28;20053;-68
2022/07/24 09:57:22;;;;;;;7.20;3.00;;;27.00;94.40;;;;;;5111561;28;20090;-68
2022/07/24 09:59:51;;;;;;;9.20;2.97;;;27.20;93.00;;;;;;5101224;28;20057;-67
2022/07/24 10:02:19;;;;;;;4.50;2.95;;;27.20;93.60;;;;;;5069890;27;20039;-67
2022/07/24 10:04:46;;;;;;;3.30;2.58;;;27.30;93.60;;;;;;5087642;28;20039;-67
2022/07/24 10:07:17;;;;;;;12.70;2.60;;;27.50;93.60;;;;;;5110688;27;20039;-67
2022/07/24 10:09:49;;;;;;;6.22;2.30;;;27.60;92.50;;;;;;5087728;28;20044;-65
2022/07/24 10:12:23;;;;;;;9.23;2.42;;;27.60;92.50;;;;;;5100122;28;20405;-67
2022/07/24 10:14:52;;;;;;;4.63;2.47;;;27.70;91.50;;;;;;5085446;28;20089;-66
2022/07/24 10:17:19;;;;;;;6.15;2.47;;;27.80;91.20;;;;;;5102247;28;20466;-66
2022/07/24 10:19:47;;;;;;;4.00;2.50;;;27.60;90.90;;;;;;5106596;28;20146;-67
2022/07/24 10:22:16;;;;;;;4.63;2.13;;;27.50;90.20;;;;;;5103536;28;20131;-66
2022/07/24 10:25:07;;;;;;;4.30;2.72;;;27.40;90.70;;;;;;5106976;28;20075;-66
2022/07/24 10:27:39;;;;;;;7.43;2.53;;;27.30;91.30;;;;;;5101679;28;20040;-67
2022/07/24 10:30:11;;;;;;;8.45;2.85;;;27.20;90.50;;;;;;5087184;28;20044;-69
2022/07/24 10:32:38;;;;;;;4.70;2.15;;;27.20;90.90;;;;;;5083760;28;20063;-66
2022/07/24 10:35:06;;;;;;;;;;;27.20;91.00;;;;;;5109068;28;20118;-66
2022/07/24 10:37:58;;;;;;;3.40;2.22;;;27.10;90.00;;;;;;5100764;28;20006;-67
2022/07/24 10:40:44;;;;;;;6.13;2.50;;;27.10;90.70;;;;;;5094665;28;20044;-68
2022/07/24 10:43:15;;;;;;;4.03;2.35;;;27.20;90.30;;;;;;5099171;28;20062;-66
2022/07/24 10:45:45;;;;;;;8.82;2.78;;;27.20;90.00;;;;;;5105899;27;20094;-66
2022/07/24 10:48:29;;;;;;;3.47;2.33;;;27.10;88.50;;;;;;5108703;28;20054;-67
2022/07/24 10:51:05;;;;;;;7.55;2.60;;;27.00;89.50;;;;;;5089853;28;20507;-67
2022/07/24 10:53:52;;;;;;;5.20;2.40;;;27.20;88.10;;;;;;5105089;27;20040;-66
2022/07/24 10:56:22;;;;;;;7.35;2.65;;;27.50;88.80;;;;;;5114313;27;20393;-66
2022/07/24 10:59:03;;;;;;;3.97;2.25;;;27.90;89.80;;;;;;5109595;28;20576;-66
2022/07/24 11:01:44;;;;;;;5.03;2.50;;;28.10;86.90;;;;;;5091126;27;20600;-68
2022/07/24 11:04:36;;;;;;;5.38;2.50;;;28.10;83.10;;;;;;5087624;28;20039;-67
2022/07/24 11:07:12;;;;;;;5.68;2.30;;;28.00;82.00;;;;;;5104259;28;20079;-66
2022/07/24 11:10:01;;;;;;;3.75;2.13;;;28.00;82.50;;;;;;5090345;28;20523;-66
2022/07/24 11:12:29;;;;;;;5.03;2.50;;;28.00;84.10;;;;;;5106797;28;20082;-67
2022/07/24 11:17:49;;;;;;;4.07;2.45;;;28.10;84.00;;;;;;5100879;27;20051;-67
2022/07/24 11:20:18;;;;;;;5.28;2.80;;;28.20;84.30;;;;;;5099459;28;20043;-66
2022/07/24 11:22:57;;;;;;;4.72;2.75;;;28.50;85.20;;;;;;5093484;28;20090;-66
2022/07/24 11:25:27;;;;;;;9.98;2.70;;;28.90;82.60;;;;;;5112700;28;20044;-66
2022/07/24 11:27:58;;;;;;;6.22;2.50;;;29.20;81.50;;;;;;5109300;28;20506;-67
2022/07/24 11:30:26;;;;;;;4.03;2.50;;;29.50;80.10;;;;;;5086152;28;20060;-68
2022/07/24 11:32:52;;;;;;;4.38;2.53;;;29.70;79.80;;;;;;5086780;28;20126;-66
2022/07/24 11:35:27;;;;;;;6.55;2.50;;;30.00;79.80;;;;;;5082384;28;20471;-66
2022/07/24 11:37:53;;;;;;;5.85;2.78;;;30.30;77.90;;;;;;5105806;27;20052;-68
2022/07/24 11:40:22;;;;;;;4.32;2.40;;;30.40;76.60;;;;;;5085131;28;20093;-66
2022/07/24 11:42:55;;;;;;;7.93;2.55;;;30.70;76.00;;;;;;5091578;28;20081;-68
2022/07/24 11:45:21;;;;;;;4.20;2.42;;;30.70;74.50;;;;;;5088010;27;20042;-67
2022/07/24 11:47:46;;;;;;;5.63;2.30;;;30.70;74.70;;;;;;5103871;28;20401;-66
2022/07/24 11:50:20;;;;;;;5.40;2.60;;;30.80;74.10;;;;;;5062812;27;20396;-67
2022/07/24 11:52:46;;;;;;;7.78;2.85;;;30.70;70.80;;;;;;5088898;28;20079;-66
2022/07/24 11:55:14;;;;;;;4.53;2.13;;;30.80;71.60;;;;;;5109598;28;20078;-67
2022/07/24 11:57:45;;;;;;;5.18;2.30;;;30.80;71.40;;;;;;5093459;28;20412;-68
2022/07/24 12:00:13;;;;;;;3.53;2.58;;;30.90;70.60;;;;;;5088151;28;20099;-67
2022/07/24 12:02:47;;;;;;;6.53;3.00;;;30.80;70.20;;;;;;5082044;28;20383;-67
2022/07/24 12:05:23;;;;;;;4.85;2.28;;;30.80;69.20;;;;;;5104853;28;20437;-66
2022/07/24 12:07:48;;;;;;;11.27;2.55;;;30.80;70.40;;;;;;5109419;28;20043;-66
2022/07/24 12:10:19;;;;;;;7.15;2.10;;;30.90;69.40;;;;;;5105649;28;20066;-68
2022/07/24 12:12:45;;;;;;;4.68;2.47;;;30.90;68.20;;;;;;5108626;28;20442;-68
2022/07/24 12:15:13;;;;;;;6.55;2.72;;;30.70;67.00;;;;;;5127962;27;20074;-68
2022/07/24 12:18:14;;;;;;;3.10;2.00;;;30.70;67.60;;;;;;5111390;27;20046;-66
2022/07/24 12:20:44;;;;;;;4.88;2.28;;;30.70;67.90;;;;;;5020043;28;20244;-68
2022/07/24 12:23:15;;;;;;;4.68;2.20;;;30.90;69.10;;;;;;5093598;28;20412;-67
2022/07/24 12:25:42;;;;;;;3.30;2.15;;;31.10;67.80;;;;;;5092758;28;20051;-67
2022/07/24 12:28:12;;;;;;;;;;;31.10;68.00;;;;;;5089017;28;20055;-67
2022/07/24 12:30:50;;;;;;;4.78;2.53;;;31.20;68.30;;;;;;5090476;28;20498;-66
2022/07/24 12:33:15;;;;;;;8.90;3.25;;;31.30;67.50;;;;;;5081715;28;20048;-66
2022/07/24 12:36:08;;;;;;;5.47;2.33;;;31.10;66.90;;;;;;5099985;28;20527;-66
2022/07/24 12:38:38;;;;;;;4.97;2.10;;;31.30;66.90;;;;;;5070256;28;20046;-66
2022/07/24 12:41:13;;;;;;;3.75;2.15;;;31.10;64.80;;;;;;5104791;28;20368;-69
2022/07/24 12:44:04;;;;;;;5.70;2.30;;;31.20;64.00;;;;;;5098100;28;20120;-66
2022/07/24 12:46:42;;;;;;;5.43;2.67;;;31.20;65.30;;;;;;5091486;28;20039;-69
2022/07/24 12:49:15;;;;;;;6.13;2.55;;;31.30;65.00;;;;;;5099438;28;20138;-66
2022/07/24 12:51:48;;;;;;;14.52;2.40;;;31.30;64.50;;;;;;5090890;28;20378;-67
2022/07/24 12:54:25;;;;;;;6.32;2.25;;;31.50;65.50;;;;;;5063643;28;20109;-67